Аэропорт: Алматы. Алма-Ата

ICAO: UAAA

METAR:
2019-11-21 01:30:00
UAAA 210130Z 32003MPS 5000 -SN BR BKN006 OVC026 M05/M06 Q1022 R88/6/0250 NOSIG RMK QBB190
METAR:
2019-11-20 23:00:00
TAF UAAA 202300Z 2100/2124 32003MPS 3100 -SHSN BR BKN011 OVC020CB TXM01/2106Z TNM04/2101Z TEMPO 2100/2106 26003G08MPS 1000 SN OVC002 TEMPO 2114/2124 0500 FZFG VV002